createdAt,value
2022-10-11T00:01:27.559Z,3.33
2022-10-11T00:03:54.422Z,2.85
2022-10-11T00:06:21.282Z,3.33
2022-10-11T00:08:48.111Z,2.97
2022-10-11T00:11:15.002Z,2.95
2022-10-11T00:13:41.874Z,3.08
2022-10-11T00:16:10.591Z,3.13
2022-10-11T00:18:37.579Z,2.75
2022-10-11T00:21:06.066Z,2.75
2022-10-11T00:23:33.282Z,3.10
2022-10-11T00:26:00.837Z,2.95
2022-10-11T00:28:27.782Z,2.20
2022-10-11T00:30:54.769Z,2.83
2022-10-11T00:33:21.738Z,2.92
2022-10-11T00:35:48.908Z,3.13
2022-10-11T00:38:15.908Z,2.83
2022-10-11T00:40:43.070Z,3.08
2022-10-11T00:43:17.594Z,2.83
2022-10-11T00:45:53.343Z,2.40
2022-10-11T00:48:30.095Z,2.75
2022-10-11T00:50:57.476Z,2.83
2022-10-11T00:53:24.354Z,2.88
2022-10-11T00:55:53.906Z,2.65
2022-10-11T00:58:20.860Z,2.55
2022-10-11T01:00:48.162Z,2.70
2022-10-11T01:03:16.178Z,3.40
2022-10-11T01:05:43.133Z,2.42
2022-10-11T01:08:09.976Z,2.85
2022-10-11T01:10:36.832Z,2.95
2022-10-11T01:13:26.697Z,2.10
2022-10-11T01:16:11.002Z,2.70
2022-10-11T01:18:40.911Z,2.53
2022-10-11T01:21:19.682Z,3.10
2022-10-11T01:24:12.561Z,2.70
2022-10-11T01:26:55.763Z,2.63
2022-10-11T01:29:31.771Z,2.67
2022-10-11T01:32:26.859Z,3.13
2022-10-11T01:35:00.556Z,3.00
2022-10-11T01:37:33.022Z,2.97
2022-10-11T01:40:03.737Z,2.53
2022-10-11T01:42:30.735Z,2.72
2022-10-11T01:44:57.949Z,2.70
2022-10-11T01:47:24.943Z,2.95
2022-10-11T01:49:59.713Z,2.85
2022-10-11T01:52:32.172Z,2.33
2022-10-11T01:55:20.385Z,2.97
2022-10-11T01:57:56.278Z,3.20
2022-10-11T02:00:24.651Z,2.55
2022-10-11T02:02:56.165Z,3.05
2022-10-11T02:05:51.907Z,2.40
2022-10-11T02:08:26.818Z,2.55
2022-10-11T02:11:01.469Z,2.97
2022-10-11T02:13:32.011Z,3.03
2022-10-11T02:15:59.168Z,2.80
2022-10-11T02:18:28.811Z,3.38
2022-10-11T02:20:55.641Z,2.72
2022-10-11T02:23:34.759Z,3.20
2022-10-11T02:26:02.873Z,2.90
2022-10-11T02:28:31.546Z,3.00
2022-10-11T02:30:58.983Z,2.72
2022-10-11T02:33:32.151Z,2.42
2022-10-11T02:36:03.311Z,2.40
2022-10-11T02:38:37.447Z,2.80
2022-10-11T02:41:20.049Z,2.22
2022-10-11T02:43:51.483Z,2.42
2022-10-11T02:46:18.356Z,2.50
2022-10-11T02:48:45.196Z,2.88
2022-10-11T02:51:13.400Z,2.63
2022-10-11T02:53:40.270Z,2.33
2022-10-11T02:56:07.957Z,2.45
2022-10-11T02:58:35.126Z,2.47
2022-10-11T03:01:01.995Z,2.75
2022-10-11T03:03:28.904Z,2.28
2022-10-11T03:06:00.590Z,2.50
2022-10-11T03:08:27.531Z,2.15
2022-10-11T03:10:54.714Z,2.40
2022-10-11T03:13:21.641Z,2.63
2022-10-11T03:16:00.698Z,2.33
2022-10-11T03:18:29.947Z,2.50
2022-10-11T03:20:56.872Z,2.28
2022-10-11T03:23:23.793Z,2.45
2022-10-11T03:25:52.205Z,2.42
2022-10-11T03:28:19.766Z,2.22
2022-10-11T03:30:49.982Z,2.25
2022-10-11T03:33:17.306Z,1.85
2022-10-11T03:35:45.701Z,2.30
2022-10-11T03:38:17.640Z,2.30
2022-10-11T03:40:44.551Z,2.28
2022-10-11T03:43:11.690Z,2.67
2022-10-11T03:45:38.621Z,2.13
2022-10-11T03:48:05.745Z,2.25
2022-10-11T03:50:32.719Z,2.40
2022-10-11T03:52:59.548Z,2.63
2022-10-11T03:55:26.558Z,2.40
2022-10-11T03:57:53.395Z,2.13
2022-10-11T04:00:20.307Z,2.10
2022-10-11T04:02:47.139Z,2.35
2022-10-11T04:05:14.140Z,2.70
2022-10-11T04:07:41.411Z,2.13
2022-10-11T04:10:08.716Z,2.40
2022-10-11T04:12:36.770Z,2.15
2022-10-11T04:15:04.054Z,2.50
2022-10-11T04:17:30.943Z,2.33
2022-10-11T04:19:57.914Z,3.00
2022-10-11T04:22:24.903Z,2.00
2022-10-11T04:24:52.214Z,2.53
2022-10-11T04:27:19.103Z,2.55
2022-10-11T04:29:45.922Z,2.20
2022-10-11T04:32:12.777Z,2.50
2022-10-11T04:34:39.674Z,2.17
2022-10-11T04:37:06.519Z,2.40
2022-10-11T04:39:33.379Z,2.72
2022-10-11T04:42:00.314Z,2.55
2022-10-11T04:44:27.212Z,2.72
2022-10-11T04:46:54.296Z,2.50
2022-10-11T04:49:21.322Z,2.13
2022-10-11T04:51:48.166Z,2.25
2022-10-11T04:54:15.133Z,2.50
2022-10-11T04:56:41.963Z,2.00
2022-10-11T04:59:08.835Z,2.92
2022-10-11T05:01:35.740Z,2.25
2022-10-11T05:04:02.797Z,2.83
2022-10-11T05:06:29.717Z,2.60
2022-10-11T05:08:56.674Z,2.65
2022-10-11T05:11:23.542Z,2.55
2022-10-11T05:13:50.432Z,3.08
2022-10-11T05:16:17.902Z,2.30
2022-10-11T05:18:45.210Z,2.38
2022-10-11T05:21:17.466Z,2.72
2022-10-11T05:23:44.356Z,2.10
2022-10-11T05:26:11.212Z,3.17
2022-10-11T05:28:38.151Z,2.92
2022-10-11T05:31:05.267Z,2.33
2022-10-11T05:33:32.306Z,2.50
2022-10-11T05:35:59.262Z,2.55
2022-10-11T05:38:26.344Z,3.13
2022-10-11T05:40:53.187Z,2.20
2022-10-11T05:43:20.077Z,2.80
2022-10-11T05:45:46.922Z,2.63
2022-10-11T05:48:13.935Z,2.10
2022-10-11T05:50:40.808Z,2.80
2022-10-11T05:53:07.797Z,2.78
2022-10-11T05:55:38.606Z,2.25
2022-10-11T05:58:05.687Z,2.67
2022-10-11T06:00:32.518Z,2.97
2022-10-11T06:02:59.398Z,2.55
2022-10-11T06:05:26.303Z,2.35
2022-10-11T06:07:53.294Z,2.10
2022-10-11T06:10:20.155Z,2.47
2022-10-11T06:12:47.033Z,2.58
2022-10-11T06:15:14.814Z,2.40
2022-10-11T06:17:41.933Z,2.55
2022-10-11T06:20:09.955Z,2.38
2022-10-11T06:22:36.930Z,2.53
2022-10-11T06:25:04.015Z,2.45
2022-10-11T06:27:30.890Z,2.22
2022-10-11T06:29:57.731Z,2.55
2022-10-11T06:32:24.761Z,2.35
2022-10-11T06:34:51.653Z,2.10
2022-10-11T06:37:18.707Z,2.38
2022-10-11T06:39:45.647Z,2.42
2022-10-11T06:42:12.524Z,3.10
2022-10-11T06:44:39.659Z,3.50
2022-10-11T06:47:06.722Z,2.13
2022-10-11T06:49:34.164Z,2.63
2022-10-11T06:52:01.234Z,3.58
2022-10-11T06:54:28.124Z,3.17
2022-10-11T06:56:54.972Z,2.50
2022-10-11T06:59:22.003Z,2.95
2022-10-11T07:01:48.873Z,2.80
2022-10-11T07:04:15.826Z,2.40
2022-10-11T07:06:42.697Z,2.40
2022-10-11T07:09:09.954Z,2.90
2022-10-11T07:11:36.855Z,2.40
2022-10-11T07:14:07.565Z,2.38
2022-10-11T07:16:37.476Z,2.28
2022-10-11T07:19:05.413Z,2.20
2022-10-11T07:21:33.128Z,2.40
2022-10-11T07:24:00.355Z,2.22
2022-10-11T07:26:28.012Z,2.75
2022-10-11T07:28:55.004Z,2.55
2022-10-11T07:31:23.379Z,3.20
2022-10-11T07:33:50.277Z,2.30
2022-10-11T07:36:17.347Z,2.95
2022-10-11T07:38:45.658Z,2.17
2022-10-11T07:41:12.947Z,2.83
2022-10-11T07:43:40.083Z,2.88
2022-10-11T07:46:07.498Z,2.92
2022-10-11T07:48:35.386Z,2.80
2022-10-11T07:51:10.658Z,3.75
2022-10-11T07:53:41.802Z,2.42
2022-10-11T07:56:09.499Z,2.85
2022-10-11T07:58:36.487Z,3.20
2022-10-11T08:01:03.594Z,3.30
2022-10-11T08:03:30.573Z,2.40
2022-10-11T08:06:17.558Z,2.53
2022-10-11T08:08:44.687Z,2.80
2022-10-11T08:11:19.047Z,3.13
2022-10-11T08:13:45.959Z,3.53
2022-10-11T08:16:13.275Z,3.50
2022-10-11T08:18:40.123Z,3.05
2022-10-11T08:21:10.777Z,3.15
2022-10-11T08:23:37.876Z,3.15
2022-10-11T08:26:05.080Z,3.17
2022-10-11T08:28:32.502Z,2.97
2022-10-11T08:30:59.407Z,3.85
2022-10-11T08:33:26.533Z,2.90
2022-10-11T08:35:53.674Z,3.13
2022-10-11T08:38:20.892Z,3.63
2022-10-11T08:40:48.801Z,3.05
2022-10-11T08:43:24.907Z,3.15
2022-10-11T08:45:53.658Z,3.50
2022-10-11T08:48:25.424Z,2.83
2022-10-11T08:50:52.878Z,2.88
2022-10-11T08:53:24.188Z,2.80
2022-10-11T08:55:51.834Z,3.40
2022-10-11T08:58:24.525Z,3.10
2022-10-11T09:00:53.890Z,3.25
2022-10-11T09:03:32.777Z,2.43
2022-10-11T09:06:11.823Z,2.90
2022-10-11T09:08:49.079Z,2.88
2022-10-11T09:11:37.859Z,2.70
2022-10-11T09:14:26.166Z,2.10
2022-10-11T09:16:59.983Z,2.60
2022-10-11T09:19:46.867Z,2.45
2022-10-11T09:22:44.470Z,2.58
2022-10-11T09:25:30.802Z,2.10
2022-10-11T09:28:30.847Z,2.30
2022-10-11T09:30:58.670Z,2.10
2022-10-11T09:33:39.031Z,2.80
2022-10-11T09:36:33.165Z,2.15
2022-10-11T09:39:07.935Z,2.88
2022-10-11T09:42:00.374Z,4.03
2022-10-11T09:44:33.641Z,3.20
2022-10-11T09:47:00.561Z,3.15
2022-10-11T09:50:03.943Z,2.88
2022-10-11T09:52:30.834Z,2.05
2022-10-11T09:55:00.057Z,3.70
2022-10-11T09:57:31.601Z,2.83
2022-10-11T10:00:01.360Z,3.03
2022-10-11T10:02:45.073Z,2.83
2022-10-11T10:05:14.859Z,2.80
2022-10-11T10:08:26.991Z,3.63
2022-10-11T10:10:59.375Z,4.47
2022-10-11T10:13:46.651Z,4.03
2022-10-11T10:16:32.280Z,3.42
2022-10-11T10:19:06.647Z,3.83
2022-10-11T10:21:38.078Z,4.22
2022-10-11T10:24:09.923Z,4.07
2022-10-11T10:26:36.849Z,3.55
2022-10-11T10:29:24.015Z,4.80
2022-10-11T10:32:13.354Z,3.60
2022-10-11T10:34:56.896Z,3.15
2022-10-11T10:37:28.294Z,2.63
2022-10-11T10:40:24.298Z,1.65
2022-10-11T10:42:51.282Z,2.33
2022-10-11T10:45:21.393Z,2.53
2022-10-11T10:48:07.928Z,2.03
2022-10-11T10:50:54.822Z,2.50
2022-10-11T10:53:32.141Z,3.05
2022-10-11T10:56:22.203Z,1.73
2022-10-11T10:59:14.467Z,2.13
2022-10-11T11:01:56.231Z,1.50
2022-10-11T11:04:31.016Z,1.27
2022-10-11T11:07:10.184Z,2.40
2022-10-11T11:09:41.074Z,2.05
2022-10-11T11:12:51.107Z,1.70
2022-10-11T11:15:38.299Z,1.88
2022-10-11T11:18:37.084Z,1.70
2022-10-11T11:21:19.201Z,2.25
2022-10-11T11:24:07.950Z,2.08
2022-10-11T11:26:46.998Z,1.50
2022-10-11T11:29:27.333Z,1.73
2022-10-11T11:31:54.248Z,2.70
2022-10-11T11:34:29.529Z,2.85
2022-10-11T11:37:05.648Z,2.38
2022-10-11T11:39:53.135Z,1.88
2022-10-11T11:42:41.891Z,1.80
2022-10-11T11:45:26.511Z,1.80
2022-10-11T11:48:04.869Z,1.65
2022-10-11T11:50:40.322Z,2.30
2022-10-11T11:53:13.582Z,2.53
2022-10-11T11:55:53.415Z,1.33
2022-10-11T11:58:23.310Z,1.65
2022-10-11T12:01:30.960Z,2.17
2022-10-11T12:04:02.465Z,2.00
2022-10-11T12:06:31.396Z,2.17
2022-10-11T12:09:05.140Z,1.70
2022-10-11T12:11:37.930Z,2.20
2022-10-11T12:14:35.565Z,2.00
2022-10-11T12:17:20.953Z,2.08
2022-10-11T12:20:14.876Z,1.42
2022-10-11T12:22:54.136Z,1.85
2022-10-11T12:25:40.322Z,1.75
2022-10-11T12:28:41.944Z,1.90
2022-10-11T12:31:23.645Z,2.05
2022-10-11T12:33:53.307Z,2.58
2022-10-11T12:36:32.100Z,2.15
2022-10-11T12:39:20.772Z,1.75
2022-10-11T12:41:47.827Z,1.70
2022-10-11T12:44:23.647Z,1.73
2022-10-11T12:46:50.539Z,2.10
2022-10-11T12:49:38.246Z,2.25
2022-10-11T12:52:06.992Z,1.80
2022-10-11T12:54:52.346Z,2.30
2022-10-11T12:57:31.249Z,2.20
2022-10-11T13:00:29.778Z,1.60
2022-10-11T13:03:01.430Z,2.00
2022-10-11T13:05:44.800Z,1.45
2022-10-11T13:08:16.809Z,1.92
2022-10-11T13:10:45.778Z,1.90
2022-10-11T13:13:38.920Z,1.80
2022-10-11T13:16:12.882Z,1.63
2022-10-11T13:18:43.085Z,1.52
2022-10-11T13:21:29.883Z,1.73
2022-10-11T13:24:06.771Z,1.63
2022-10-11T13:26:33.718Z,1.67
2022-10-11T13:29:01.040Z,1.58
2022-10-11T13:31:28.154Z,2.08
2022-10-11T13:33:55.821Z,1.38
2022-10-11T13:36:24.432Z,1.58
2022-10-11T13:38:56.813Z,1.55
2022-10-11T13:41:24.980Z,1.75
2022-10-11T13:43:52.140Z,1.85
2022-10-11T13:46:23.519Z,1.60
2022-10-11T13:49:03.894Z,1.67
2022-10-11T13:51:37.302Z,1.70
2022-10-11T13:54:13.125Z,1.20
2022-10-11T13:56:43.896Z,1.20
2022-10-11T13:59:24.103Z,1.55
2022-10-11T14:01:54.639Z,1.77
2022-10-11T14:04:23.273Z,1.48
2022-10-11T14:06:58.341Z,1.77
2022-10-11T14:09:25.324Z,1.50
2022-10-11T14:11:52.269Z,1.95
2022-10-11T14:14:39.404Z,1.05
2022-10-11T14:17:11.406Z,1.50
2022-10-11T14:19:38.537Z,1.90
2022-10-11T14:22:06.036Z,1.90
2022-10-11T14:24:32.897Z,1.45
2022-10-11T14:27:00.070Z,1.40
2022-10-11T14:29:32.396Z,1.40
2022-10-11T14:32:03.542Z,1.65
2022-10-11T14:34:30.531Z,1.58
2022-10-11T14:36:57.383Z,1.30
2022-10-11T14:39:25.253Z,1.50
2022-10-11T14:41:52.303Z,1.30
2022-10-11T14:44:19.531Z,1.63
2022-10-11T14:46:46.903Z,1.60
2022-10-11T14:49:19.550Z,1.40
2022-10-11T14:51:47.630Z,2.10
2022-10-11T14:54:14.904Z,1.40
2022-10-11T14:56:41.890Z,1.40
2022-10-11T14:59:12.866Z,1.40
2022-10-11T15:01:39.824Z,1.50
2022-10-11T15:04:06.690Z,1.45
2022-10-11T15:06:36.161Z,1.50
2022-10-11T15:09:03.908Z,1.90
2022-10-11T15:11:30.838Z,1.55
2022-10-11T15:13:57.904Z,1.50
2022-10-11T15:16:26.879Z,1.30
2022-10-11T15:18:53.750Z,2.40
2022-10-11T15:21:22.522Z,1.58
2022-10-11T15:23:49.738Z,1.65
2022-10-11T15:26:18.402Z,2.22
2022-10-11T15:28:45.805Z,2.33
2022-10-11T15:31:13.014Z,1.58
2022-10-11T15:33:40.001Z,1.70
2022-10-11T15:36:08.568Z,1.58
2022-10-11T15:38:35.791Z,1.75
2022-10-11T15:41:02.834Z,1.92
2022-10-11T15:43:29.725Z,1.40
2022-10-11T15:45:57.155Z,1.42
2022-10-11T15:48:26.489Z,1.90
2022-10-11T15:50:53.938Z,1.88
2022-10-11T15:53:26.317Z,1.40
2022-10-11T15:55:54.504Z,1.80
2022-10-11T15:58:25.287Z,1.30
2022-10-11T16:00:54.255Z,1.60
2022-10-11T16:03:22.618Z,1.70
2022-10-11T16:05:49.646Z,2.17
2022-10-11T16:08:16.625Z,1.88
2022-10-11T16:10:43.622Z,1.58
2022-10-11T16:13:10.667Z,1.58
2022-10-11T16:15:38.901Z,1.50
2022-10-11T16:18:06.838Z,2.20
2022-10-11T16:20:33.797Z,2.08
2022-10-11T16:23:00.744Z,2.08
2022-10-11T16:25:27.632Z,1.40
2022-10-11T16:27:54.610Z,1.92
2022-10-11T16:30:21.488Z,1.50
2022-10-11T16:32:48.491Z,2.00
2022-10-11T16:35:15.699Z,1.88
2022-10-11T16:37:42.722Z,1.88
2022-10-11T16:40:10.466Z,2.13
2022-10-11T16:42:40.510Z,2.40
2022-10-11T16:45:08.418Z,2.08
2022-10-11T16:47:35.353Z,1.75
2022-10-11T16:50:02.328Z,2.13
2022-10-11T16:52:29.282Z,2.45
2022-10-11T16:54:56.143Z,2.33
2022-10-11T16:57:23.149Z,2.55
2022-10-11T16:59:50.101Z,2.45
2022-10-11T17:02:31.323Z,2.92
2022-10-11T17:04:59.404Z,2.05
2022-10-11T17:07:26.362Z,1.83
2022-10-11T17:09:53.417Z,2.10
2022-10-11T17:12:21.653Z,1.77
2022-10-11T17:14:48.730Z,1.90
2022-10-11T17:17:16.063Z,2.30
2022-10-11T17:19:45.320Z,2.08
2022-10-11T17:22:13.576Z,2.08
2022-10-11T17:24:40.541Z,1.50
2022-10-11T17:27:07.409Z,1.90
2022-10-11T17:29:34.325Z,1.80
2022-10-11T17:32:01.468Z,1.80
2022-10-11T17:34:28.432Z,2.20
2022-10-11T17:36:55.482Z,2.53
2022-10-11T17:39:22.866Z,2.53
2022-10-11T17:41:50.027Z,2.20
2022-10-11T17:44:19.989Z,1.83
2022-10-11T17:46:47.054Z,1.50
2022-10-11T17:49:14.026Z,1.63
2022-10-11T17:51:41.102Z,2.08
2022-10-11T17:54:12.437Z,2.03
2022-10-11T17:56:40.445Z,1.58
2022-10-11T17:59:07.823Z,1.85
2022-10-11T18:01:34.870Z,1.67
2022-10-11T18:04:03.376Z,1.80
2022-10-11T18:06:32.207Z,1.98
2022-10-11T18:09:02.485Z,2.80
2022-10-11T18:11:29.657Z,4.03
2022-10-11T18:13:56.636Z,4.28
2022-10-11T18:16:24.914Z,3.00
2022-10-11T18:18:51.880Z,3.70
2022-10-11T18:21:19.543Z,4.72
2022-10-11T18:23:46.519Z,3.78
2022-10-11T18:26:18.026Z,4.00
2022-10-11T18:28:45.477Z,3.55
2022-10-11T18:31:20.610Z,3.00
2022-10-11T18:33:47.681Z,3.72
2022-10-11T18:36:15.640Z,3.65
2022-10-11T18:38:46.360Z,4.97
2022-10-11T18:41:15.651Z,3.83
2022-10-11T18:43:42.742Z,4.32
2022-10-11T18:46:13.958Z,4.30
2022-10-11T18:48:42.132Z,4.35
2022-10-11T18:51:14.518Z,4.25
2022-10-11T18:53:41.616Z,4.00
2022-10-11T18:56:09.675Z,4.32
2022-10-11T18:58:37.281Z,4.60
2022-10-11T19:01:08.631Z,4.95
2022-10-11T19:03:35.741Z,5.53
2022-10-11T19:06:07.962Z,5.47
2022-10-11T19:08:35.181Z,4.25
2022-10-11T19:11:06.626Z,5.25
2022-10-11T19:13:34.256Z,4.57
2022-10-11T19:16:08.517Z,3.55
2022-10-11T19:18:38.354Z,3.13
2022-10-11T19:21:10.575Z,3.22
2022-10-11T19:23:42.382Z,2.88
2022-10-11T19:26:33.581Z,5.15
2022-10-11T19:29:06.334Z,3.97
2022-10-11T19:31:33.786Z,3.47
2022-10-11T19:34:01.166Z,3.08
2022-10-11T19:36:31.418Z,3.00
2022-10-11T19:39:01.018Z,2.80
2022-10-11T19:41:28.006Z,3.42
2022-10-11T19:43:55.105Z,3.50
2022-10-11T19:49:09.230Z,3.80
2022-10-11T19:51:37.655Z,3.97
2022-10-11T19:54:06.704Z,3.65
2022-10-11T19:56:33.795Z,3.17
2022-10-11T19:59:00.806Z,3.15
2022-10-11T20:01:29.477Z,3.92
2022-10-11T20:03:58.907Z,4.03
2022-10-11T20:06:26.824Z,3.42
2022-10-11T20:09:16.546Z,3.50
2022-10-11T20:11:40.749Z,3.03
2022-10-11T20:14:07.665Z,3.45
2022-10-11T20:16:34.701Z,4.03
2022-10-11T20:19:02.314Z,3.60
2022-10-11T20:21:30.003Z,3.08
2022-10-11T20:24:02.302Z,3.35
2022-10-11T20:26:29.506Z,3.53
2022-10-11T20:28:56.901Z,3.85
2022-10-11T20:31:26.038Z,3.63
2022-10-11T20:33:55.418Z,2.95
2022-10-11T20:36:22.784Z,4.20
2022-10-11T20:38:49.935Z,4.00
2022-10-11T20:41:18.801Z,3.83
2022-10-11T20:43:46.349Z,4.13
2022-10-11T20:46:17.594Z,4.18
2022-10-11T20:49:00.382Z,4.25
2022-10-11T20:51:28.930Z,3.42
2022-10-11T20:53:56.531Z,3.40
2022-10-11T20:56:23.400Z,4.13
2022-10-11T20:58:52.006Z,5.10
2022-10-11T21:01:23.479Z,5.47
2022-10-11T21:03:50.539Z,6.03
2022-10-11T21:06:17.429Z,5.35
2022-10-11T21:08:44.448Z,5.20
2022-10-11T21:11:11.654Z,5.63
2022-10-11T21:13:38.563Z,5.75
2022-10-11T21:16:11.429Z,6.20
2022-10-11T21:18:38.418Z,6.05
2022-10-11T21:21:14.537Z,5.18
2022-10-11T21:23:41.807Z,6.40
2022-10-11T21:26:10.748Z,6.03
2022-10-11T21:28:37.985Z,5.15
2022-10-11T21:31:05.476Z,5.72
2022-10-11T21:33:32.775Z,5.00
2022-10-11T21:36:01.053Z,4.93
2022-10-11T21:38:27.965Z,5.00
2022-10-11T21:40:54.840Z,5.13
2022-10-11T21:43:21.747Z,5.50
2022-10-11T21:45:48.631Z,5.38
2022-10-11T21:48:15.576Z,4.78
2022-10-11T21:50:42.580Z,5.20
2022-10-11T21:53:09.555Z,4.18
2022-10-11T21:55:36.479Z,5.20
2022-10-11T21:58:03.451Z,5.50
2022-10-11T22:00:30.294Z,5.00
2022-10-11T22:02:57.215Z,4.78
2022-10-11T22:05:24.380Z,4.20
2022-10-11T22:07:51.407Z,5.85
2022-10-11T22:10:18.323Z,4.90
2022-10-11T22:12:45.495Z,4.80
2022-10-11T22:15:12.428Z,4.88
2022-10-11T22:17:39.420Z,6.13
2022-10-11T22:20:06.890Z,6.38
2022-10-11T22:22:34.055Z,5.28
2022-10-11T22:25:01.185Z,5.10
2022-10-11T22:27:28.126Z,4.53
2022-10-11T22:29:55.091Z,6.28
2022-10-11T22:32:21.943Z,5.75
2022-10-11T22:34:48.795Z,5.65
2022-10-11T22:37:15.732Z,4.57
2022-10-11T22:39:42.568Z,5.95
2022-10-11T22:42:09.417Z,4.80
2022-10-11T22:44:36.373Z,6.20
2022-10-11T22:47:03.339Z,4.60
2022-10-11T22:49:30.171Z,3.80
2022-10-11T22:51:57.107Z,3.92
2022-10-11T22:54:24.199Z,3.67
2022-10-11T22:56:51.078Z,3.58
2022-10-11T22:59:17.990Z,3.30
2022-10-11T23:01:44.925Z,2.85
2022-10-11T23:04:11.767Z,3.20
2022-10-11T23:06:38.641Z,2.97
2022-10-11T23:09:05.614Z,3.33
2022-10-11T23:11:32.444Z,3.13
2022-10-11T23:13:59.312Z,3.63
2022-10-11T23:16:26.159Z,3.30
2022-10-11T23:18:53.565Z,2.90
2022-10-11T23:21:20.453Z,2.92
2022-10-11T23:23:47.383Z,3.33
2022-10-11T23:26:15.921Z,2.85
2022-10-11T23:28:43.155Z,2.70
2022-10-11T23:31:11.991Z,3.15
2022-10-11T23:33:38.997Z,3.50
2022-10-11T23:36:06.387Z,2.85
2022-10-11T23:38:33.331Z,2.40
2022-10-11T23:41:00.175Z,2.50
2022-10-11T23:43:27.024Z,2.80
2022-10-11T23:45:55.908Z,2.97
2022-10-11T23:48:23.203Z,3.38
2022-10-11T23:50:50.296Z,3.35
2022-10-11T23:53:17.275Z,2.38
2022-10-11T23:55:44.155Z,2.70
2022-10-11T23:58:10.996Z,2.30
